sensor_id;sensor_type;location;lat;lon;timestamp;pressure;altitude;pressure_sealevel;temperature;humidity
34185;BME280;20454;48.100;11.776;2023-03-21T05:00:22;95516.69;;;7.44;100.00
34185;BME280;20454;48.100;11.776;2023-03-21T05:02:48;95518.13;;;7.42;100.00
34185;BME280;20454;48.100;11.776;2023-03-21T05:05:13;95509.09;;;7.36;100.00
34185;BME280;20454;48.100;11.776;2023-03-21T05:07:39;95500.19;;;7.39;100.00
34185;BME280;20454;48.100;11.776;2023-03-21T05:10:08;95507.38;;;7.40;100.00
34185;BME280;20454;48.100;11.776;2023-03-21T05:12:34;95508.19;;;7.41;100.00
34185;BME280;20454;48.100;11.776;2023-03-21T05:15:00;95510.66;;;7.42;100.00
34185;BME280;20454;48.100;11.776;2023-03-21T05:17:26;95513.13;;;7.44;100.00
34185;BME280;20454;48.100;11.776;2023-03-21T05:19:53;95510.16;;;7.40;100.00
34185;BME280;20454;48.100;11.776;2023-03-21T05:22:21;95516.50;;;7.41;100.00
34185;BME280;20454;48.100;11.776;2023-03-21T05:24:49;95515.69;;;7.40;100.00
34185;BME280;20454;48.100;11.776;2023-03-21T05:27:19;95518.97;;;7.42;100.00
34185;BME280;20454;48.100;11.776;2023-03-21T05:30:08;95512.28;;;7.43;100.00
34185;BME280;20454;48.100;11.776;2023-03-21T05:32:35;95521.09;;;7.45;100.00
34185;BME280;20454;48.100;11.776;2023-03-21T05:35:01;95505.13;;;7.42;100.00
34185;BME280;20454;48.100;11.776;2023-03-21T05:37:27;95517.53;;;7.45;100.00
34185;BME280;20454;48.100;11.776;2023-03-21T06:44:40;95545.03;;;8.73;96.70
34185;BME280;20454;48.100;11.776;2023-03-21T06:47:05;95551.38;;;8.87;97.02
34185;BME280;20454;48.100;11.776;2023-03-21T06:49:31;95545.22;;;8.90;95.33
34185;BME280;20454;48.100;11.776;2023-03-21T06:51:57;95555.97;;;9.05;95.29
34185;BME280;20454;48.100;11.776;2023-03-21T06:54:22;95553.50;;;9.17;95.17
34185;BME280;20454;48.100;11.776;2023-03-21T06:56:48;95547.19;;;9.25;94.20
34185;BME280;20454;48.100;11.776;2023-03-21T06:59:14;95561.31;;;9.37;93.81
34185;BME280;20454;48.100;11.776;2023-03-21T07:01:40;95548.97;;;9.43;92.76
34185;BME280;20454;48.100;11.776;2023-03-21T07:04:08;95541.03;;;9.49;91.20
34185;BME280;20454;48.100;11.776;2023-03-21T07:06:34;95546.03;;;9.61;90.80
34185;BME280;20454;48.100;11.776;2023-03-21T07:09:00;95537.13;;;9.72;89.33
34185;BME280;20454;48.100;11.776;2023-03-21T07:11:27;95542.13;;;9.84;89.22
34185;BME280;20454;48.100;11.776;2023-03-21T07:13:53;95547.59;;;9.97;88.97
34185;BME280;20454;48.100;11.776;2023-03-21T07:16:19;95543.06;;;10.01;87.50
34185;BME280;20454;48.100;11.776;2023-03-21T07:18:46;95544.25;;;10.09;85.52
34185;BME280;20454;48.100;11.776;2023-03-21T07:21:12;95545.47;;;10.16;85.80
34185;BME280;20454;48.100;11.776;2023-03-21T07:23:38;95538.63;;;10.22;85.30
34185;BME280;20454;48.100;11.776;2023-03-21T07:26:05;95547.50;;;10.33;85.06
34185;BME280;20454;48.100;11.776;2023-03-21T07:28:31;95549.81;;;10.39;83.84
34185;BME280;20454;48.100;11.776;2023-03-21T07:31:01;95536.94;;;10.43;82.03
34185;BME280;20454;48.100;11.776;2023-03-21T07:33:29;95543.81;;;10.46;81.86
34185;BME280;20454;48.100;11.776;2023-03-21T07:35:56;95541.53;;;10.48;79.76
34185;BME280;20454;48.100;11.776;2023-03-21T07:38:25;95549.59;;;10.58;79.46
34185;BME280;20454;48.100;11.776;2023-03-21T07:40:51;95546.66;;;10.63;78.78
34185;BME280;20454;48.100;11.776;2023-03-21T07:43:17;95539.81;;;10.69;78.44
34185;BME280;20454;48.100;11.776;2023-03-21T07:45:44;95534.59;;;10.76;78.47
34185;BME280;20454;48.100;11.776;2023-03-21T07:48:11;95538.88;;;10.82;77.91
34185;BME280;20454;48.100;11.776;2023-03-21T07:50:42;95544.81;;;10.97;76.81
34185;BME280;20454;48.100;11.776;2023-03-21T07:53:08;95532.41;;;11.03;75.85
34185;BME280;20454;48.100;11.776;2023-03-21T07:55:34;95545.50;;;11.11;74.99
34185;BME280;20454;48.100;11.776;2023-03-21T07:58:02;95542.22;;;11.18;74.90
34185;BME280;20454;48.100;11.776;2023-03-21T09:18:17;95522.94;;;13.27;60.11
34185;BME280;20454;48.100;11.776;2023-03-21T09:20:47;95512.59;;;13.28;59.36
34185;BME280;20454;48.100;11.776;2023-03-21T09:23:14;95516.59;;;13.39;57.82
34185;BME280;20454;48.100;11.776;2023-03-21T09:25:43;95514.69;;;13.51;58.78
34185;BME280;20454;48.100;11.776;2023-03-21T09:28:09;95509.88;;;13.60;59.30
34185;BME280;20454;48.100;11.776;2023-03-21T09:30:35;95487.38;;;13.57;58.66
34185;BME280;20454;48.100;11.776;2023-03-21T09:33:04;95513.81;;;13.80;58.43
34185;BME280;20454;48.100;11.776;2023-03-21T09:35:37;95493.31;;;13.76;58.86
34185;BME280;20454;48.100;11.776;2023-03-21T09:38:03;95507.00;;;13.89;58.49
34185;BME280;20454;48.100;11.776;2023-03-21T09:46:50;95497.72;;;14.30;58.40
34185;BME280;20454;48.100;11.776;2023-03-21T09:49:41;95487.59;;;14.37;57.38
34185;BME280;20454;48.100;11.776;2023-03-21T09:52:26;95474.91;;;14.40;57.18
34185;BME280;20454;48.100;11.776;2023-03-21T09:54:54;95485.75;;;14.53;56.49
34185;BME280;20454;48.100;11.776;2023-03-21T09:59:59;95467.66;;;14.51;55.09
34185;BME280;20454;48.100;11.776;2023-03-21T10:02:48;95479.13;;;14.70;56.27
34185;BME280;20454;48.100;11.776;2023-03-21T10:05:25;95481.47;;;14.91;57.17
34185;BME280;20454;48.100;11.776;2023-03-21T10:08:13;95460.91;;;14.99;56.94
34185;BME280;20454;48.100;11.776;2023-03-21T10:10:52;95486.84;;;15.32;55.21
34185;BME280;20454;48.100;11.776;2023-03-21T10:13:27;95478.22;;;15.37;55.08
34185;BME280;20454;48.100;11.776;2023-03-21T10:16:12;95479.72;;;15.35;54.36
34185;BME280;20454;48.100;11.776;2023-03-21T10:18:41;95476.00;;;15.19;54.47
34185;BME280;20454;48.100;11.776;2023-03-21T10:21:14;95475.97;;;14.95;54.07
34185;BME280;20454;48.100;11.776;2023-03-21T10:23:42;95469.22;;;15.08;53.95
34185;BME280;20454;48.100;11.776;2023-03-21T10:26:08;95463.38;;;15.01;52.31
34185;BME280;20454;48.100;11.776;2023-03-21T10:28:40;95457.22;;;14.95;52.28
34185;BME280;20454;48.100;11.776;2023-03-21T10:31:09;95442.25;;;14.91;51.86
34185;BME280;20454;48.100;11.776;2023-03-21T10:33:40;95450.66;;;15.03;51.56
34185;BME280;20454;48.100;11.776;2023-03-21T10:36:22;95461.59;;;15.20;52.65
34185;BME280;20454;48.100;11.776;2023-03-21T10:39:07;95454.03;;;15.21;52.19
34185;BME280;20454;48.100;11.776;2023-03-21T10:41:37;95455.66;;;15.22;52.44
34185;BME280;20454;48.100;11.776;2023-03-21T10:44:13;95434.53;;;15.12;52.66
34185;BME280;20454;48.100;11.776;2023-03-21T10:46:54;95443.84;;;15.28;52.37
34185;BME280;20454;48.100;11.776;2023-03-21T10:49:21;95447.59;;;15.44;52.70
34185;BME280;20454;48.100;11.776;2023-03-21T10:51:50;95443.13;;;15.55;51.87
34185;BME280;20454;48.100;11.776;2023-03-21T10:54:20;95447.59;;;15.72;50.98
34185;BME280;20454;48.100;11.776;2023-03-21T10:56:56;95429.34;;;15.78;48.27
34185;BME280;20454;48.100;11.776;2023-03-21T10:59:26;95422.22;;;15.80;49.71
34185;BME280;20454;48.100;11.776;2023-03-21T11:01:54;95438.28;;;16.23;50.13
34185;BME280;20454;48.100;11.776;2023-03-21T11:04:25;95443.22;;;16.41;47.41
34185;BME280;20454;48.100;11.776;2023-03-21T11:06:55;95441.16;;;16.69;48.14
34185;BME280;20454;48.100;11.776;2023-03-21T11:09:24;95436.06;;;16.90;48.61
34185;BME280;20454;48.100;11.776;2023-03-21T11:12:10;95419.28;;;16.94;45.95
34185;BME280;20454;48.100;11.776;2023-03-21T11:14:43;95424.72;;;17.18;44.88
34185;BME280;20454;48.100;11.776;2023-03-21T11:17:21;95422.66;;;17.49;45.40
34185;BME280;20454;48.100;11.776;2023-03-21T11:19:57;95402.41;;;17.97;46.09
34185;BME280;20454;48.100;11.776;2023-03-21T11:22:29;95416.72;;;18.49;45.17
34185;BME280;20454;48.100;11.776;2023-03-21T11:25:00;95411.56;;;18.77;43.31
34185;BME280;20454;48.100;11.776;2023-03-21T11:27:28;95409.28;;;19.09;42.87
34185;BME280;20454;48.100;11.776;2023-03-21T11:29:57;95386.66;;;19.54;40.92
34185;BME280;20454;48.100;11.776;2023-03-21T11:32:34;95393.06;;;20.10;40.53
34185;BME280;20454;48.100;11.776;2023-03-21T11:35:23;95397.03;;;19.76;38.94
34185;BME280;20454;48.100;11.776;2023-03-21T11:37:52;95391.00;;;19.77;39.98
34185;BME280;20454;48.100;11.776;2023-03-21T11:40:26;95395.41;;;20.37;39.04
34185;BME280;20454;48.100;11.776;2023-03-21T11:43:03;95386.63;;;20.85;38.63
34185;BME280;20454;48.100;11.776;2023-03-21T11:48:43;95357.31;;;21.65;37.40
34185;BME280;20454;48.100;11.776;2023-03-21T11:54:21;95364.38;;;21.31;37.07
34185;BME280;20454;48.100;11.776;2023-03-21T11:56:55;95342.41;;;21.71;38.38
34185;BME280;20454;48.100;11.776;2023-03-21T11:59:40;95347.03;;;22.18;36.48
34185;BME280;20454;48.100;11.776;2023-03-21T12:02:38;95348.63;;;22.08;35.30
34185;BME280;20454;48.100;11.776;2023-03-21T12:05:22;95332.00;;;21.96;35.37
34185;BME280;20454;48.100;11.776;2023-03-21T12:08:35;95314.75;;;22.47;34.23
34185;BME280;20454;48.100;11.776;2023-03-21T12:11:14;95305.03;;;22.48;34.53
34185;BME280;20454;48.100;11.776;2023-03-21T12:14:00;95311.53;;;22.73;35.16
34185;BME280;20454;48.100;11.776;2023-03-21T12:20:27;95303.84;;;23.19;32.47
34185;BME280;20454;48.100;11.776;2023-03-21T12:23:28;95299.75;;;23.37;31.90
34185;BME280;20454;48.100;11.776;2023-03-21T12:26:21;95293.31;;;23.30;30.71
34185;BME280;20454;48.100;11.776;2023-03-21T12:34:17;95286.69;;;23.71;32.60
34185;BME280;20454;48.100;11.776;2023-03-21T12:39:36;95272.56;;;23.50;30.41
34185;BME280;20454;48.100;11.776;2023-03-21T12:42:51;95272.19;;;23.38;30.55
34185;BME280;20454;48.100;11.776;2023-03-21T12:45:26;95263.16;;;23.64;30.98
34185;BME280;20454;48.100;11.776;2023-03-21T12:48:34;95283.06;;;23.57;30.37
34185;BME280;20454;48.100;11.776;2023-03-21T12:51:04;95267.75;;;23.12;30.86
34185;BME280;20454;48.100;11.776;2023-03-21T12:53:58;95276.69;;;22.69;31.94
34185;BME280;20454;48.100;11.776;2023-03-21T12:56:40;95243.38;;;22.17;32.33
34185;BME280;20454;48.100;11.776;2023-03-21T12:59:22;95263.22;;;22.20;33.38
34185;BME280;20454;48.100;11.776;2023-03-21T13:01:55;95259.63;;;22.37;34.01
34185;BME280;20454;48.100;11.776;2023-03-21T13:04:54;95238.94;;;22.19;32.62
34185;BME280;20454;48.100;11.776;2023-03-21T13:07:23;95240.09;;;21.94;33.49
34185;BME280;20454;48.100;11.776;2023-03-21T13:09:49;95252.53;;;21.65;34.12
34185;BME280;20454;48.100;11.776;2023-03-21T13:13:07;95253.66;;;21.43;33.76
34185;BME280;20454;48.100;11.776;2023-03-21T13:24:16;95230.34;;;21.84;33.41
34185;BME280;20454;48.100;11.776;2023-03-21T13:26:48;95227.16;;;21.93;33.11
34185;BME280;20454;48.100;11.776;2023-03-21T13:32:31;95224.41;;;22.56;32.14
34185;BME280;20454;48.100;11.776;2023-03-21T13:35:25;95220.72;;;22.34;32.30
34185;BME280;20454;48.100;11.776;2023-03-21T13:38:20;95225.59;;;22.20;33.63
34185;BME280;20454;48.100;11.776;2023-03-21T13:51:51;95204.97;;;21.16;34.42
34185;BME280;20454;48.100;11.776;2023-03-21T13:56:54;95196.78;;;21.01;36.40
34185;BME280;20454;48.100;11.776;2023-03-21T14:02:17;95190.94;;;20.73;36.01
34185;BME280;20454;48.100;11.776;2023-03-21T14:04:45;95185.31;;;20.76;36.20
34185;BME280;20454;48.100;11.776;2023-03-21T14:09:49;95165.44;;;20.62;37.13
34185;BME280;20454;48.100;11.776;2023-03-21T14:12:18;95193.84;;;20.83;35.43
34185;BME280;20454;48.100;11.776;2023-03-21T14:14:48;95188.56;;;20.78;35.99
34185;BME280;20454;48.100;11.776;2023-03-21T14:17:47;95184.53;;;20.79;35.35
34185;BME280;20454;48.100;11.776;2023-03-21T14:20:28;95177.16;;;20.61;35.99
34185;BME280;20454;48.100;11.776;2023-03-21T14:22:55;95183.94;;;20.50;35.66
34185;BME280;20454;48.100;11.776;2023-03-21T14:25:22;95176.19;;;20.40;36.39
34185;BME280;20454;48.100;11.776;2023-03-21T14:27:55;95187.41;;;20.29;35.34
34185;BME280;20454;48.100;11.776;2023-03-21T14:32:53;95180.28;;;20.02;37.48
34185;BME280;20454;48.100;11.776;2023-03-21T14:35:21;95173.34;;;19.96;37.33
34185;BME280;20454;48.100;11.776;2023-03-21T14:37:47;95176.22;;;20.00;38.34
34185;BME280;20454;48.100;11.776;2023-03-21T14:40:23;95180.19;;;19.92;36.70
34185;BME280;20454;48.100;11.776;2023-03-21T14:42:50;95157.81;;;19.73;36.66
34185;BME280;20454;48.100;11.776;2023-03-21T14:45:22;95180.88;;;19.78;36.90
34185;BME280;20454;48.100;11.776;2023-03-21T14:47:59;95179.63;;;19.76;36.15
34185;BME280;20454;48.100;11.776;2023-03-21T14:50:50;95180.28;;;19.62;36.29
34185;BME280;20454;48.100;11.776;2023-03-21T14:55:55;95186.19;;;19.47;38.48
34185;BME280;20454;48.100;11.776;2023-03-21T14:58:22;95168.59;;;19.27;39.17
34185;BME280;20454;48.100;11.776;2023-03-21T15:00:51;95181.91;;;19.27;37.80
34185;BME280;20454;48.100;11.776;2023-03-21T15:03:18;95156.09;;;18.95;38.79
34185;BME280;20454;48.100;11.776;2023-03-21T15:05:44;95171.81;;;18.96;39.36
34185;BME280;20454;48.100;11.776;2023-03-21T15:10:36;95139.09;;;18.59;39.41
34185;BME280;20454;48.100;11.776;2023-03-21T15:13:18;95164.25;;;18.71;39.85
34185;BME280;20454;48.100;11.776;2023-03-21T15:15:45;95142.16;;;18.47;36.43
34185;BME280;20454;48.100;11.776;2023-03-21T15:18:23;95164.22;;;18.41;35.36
34185;BME280;20454;48.100;11.776;2023-03-21T15:20:50;95160.41;;;18.30;36.68
34185;BME280;20454;48.100;11.776;2023-03-21T15:23:25;95161.84;;;18.21;36.97
34185;BME280;20454;48.100;11.776;2023-03-21T15:25:53;95166.03;;;18.04;37.44
34185;BME280;20454;48.100;11.776;2023-03-21T15:28:19;95163.34;;;17.89;36.92
34185;BME280;20454;48.100;11.776;2023-03-21T15:30:49;95162.69;;;17.76;36.68
34185;BME280;20454;48.100;11.776;2023-03-21T15:33:16;95164.59;;;17.46;36.61
34185;BME280;20454;48.100;11.776;2023-03-21T15:35:44;95162.53;;;17.24;37.21
34185;BME280;20454;48.100;11.776;2023-03-21T15:38:33;95169.94;;;17.13;38.24
34185;BME280;20454;48.100;11.776;2023-03-21T15:44:03;95173.94;;;16.93;39.43
34185;BME280;20454;48.100;11.776;2023-03-21T15:56:52;95165.66;;;16.62;42.47
34185;BME280;20454;48.100;11.776;2023-03-21T15:59:19;95160.72;;;16.56;43.13
34185;BME280;20454;48.100;11.776;2023-03-21T16:01:48;95160.94;;;16.47;42.55
34185;BME280;20454;48.100;11.776;2023-03-21T16:04:15;95158.75;;;16.41;42.94
34185;BME280;20454;48.100;11.776;2023-03-21T16:07:13;95162.94;;;16.31;44.22
34185;BME280;20454;48.100;11.776;2023-03-21T16:09:45;95161.06;;;16.20;44.68
34185;BME280;20454;48.100;11.776;2023-03-21T16:12:13;95158.38;;;16.08;44.70
34185;BME280;20454;48.100;11.776;2023-03-21T16:14:40;95170.41;;;16.08;45.91
34185;BME280;20454;48.100;11.776;2023-03-21T16:17:24;95148.63;;;15.86;46.29
34185;BME280;20454;48.100;11.776;2023-03-21T16:19:52;95186.91;;;15.94;46.01
34185;BME280;20454;48.100;11.776;2023-03-21T16:22:18;95181.03;;;15.84;46.36
34185;BME280;20454;48.100;11.776;2023-03-21T16:24:46;95180.31;;;15.71;45.55
34185;BME280;20454;48.100;11.776;2023-03-21T16:27:11;95174.28;;;15.54;45.93
34185;BME280;20454;48.100;11.776;2023-03-21T16:29:37;95182.41;;;15.59;45.93
34185;BME280;20454;48.100;11.776;2023-03-21T16:32:03;95185.75;;;15.49;45.60
34185;BME280;20454;48.100;11.776;2023-03-21T16:34:31;95166.34;;;15.28;45.67
34185;BME280;20454;48.100;11.776;2023-03-21T16:36:57;95202.72;;;15.40;46.34
34185;BME280;20454;48.100;11.776;2023-03-21T16:39:24;95207.00;;;15.34;44.87
34185;BME280;20454;48.100;11.776;2023-03-21T16:41:53;95201.53;;;15.26;45.10
34185;BME280;20454;48.100;11.776;2023-03-21T16:44:19;95180.03;;;15.02;45.38
34185;BME280;20454;48.100;11.776;2023-03-21T16:46:45;95195.34;;;15.05;45.86
34185;BME280;20454;48.100;11.776;2023-03-21T16:49:19;95196.03;;;15.02;46.70
34185;BME280;20454;48.100;11.776;2023-03-21T16:51:46;95195.81;;;14.95;47.98
34185;BME280;20454;48.100;11.776;2023-03-21T16:54:12;95210.66;;;14.95;48.63
34185;BME280;20454;48.100;11.776;2023-03-21T16:56:39;95210.13;;;14.90;49.28
34185;BME280;20454;48.100;11.776;2023-03-21T16:59:06;95206.28;;;14.82;49.23
34185;BME280;20454;48.100;11.776;2023-03-21T17:01:32;95205.63;;;14.74;49.45
34185;BME280;20454;48.100;11.776;2023-03-21T17:04:00;95220.44;;;14.74;49.76
34185;BME280;20454;48.100;11.776;2023-03-21T17:06:28;95204.94;;;14.65;50.30
34185;BME280;20454;48.100;11.776;2023-03-21T17:08:55;95192.16;;;14.52;50.21
34185;BME280;20454;48.100;11.776;2023-03-21T17:11:22;95214.78;;;14.59;50.38
34185;BME280;20454;48.100;11.776;2023-03-21T17:13:50;95210.47;;;14.49;51.45
34185;BME280;20454;48.100;11.776;2023-03-21T17:16:18;95214.44;;;14.48;52.10
34185;BME280;20454;48.100;11.776;2023-03-21T17:18:46;95200.81;;;14.35;52.10
34185;BME280;20454;48.100;11.776;2023-03-21T17:23:44;95216.56;;;14.27;53.15
34185;BME280;20454;48.100;11.776;2023-03-21T17:26:24;95201.41;;;14.16;53.73
34185;BME280;20454;48.100;11.776;2023-03-21T17:28:50;95212.59;;;14.16;54.10
34185;BME280;20454;48.100;11.776;2023-03-21T17:31:18;95194.22;;;13.91;54.18
34185;BME280;20454;48.100;11.776;2023-03-21T17:33:45;95212.72;;;13.96;54.90
34185;BME280;20454;48.100;11.776;2023-03-21T17:36:13;95206.00;;;13.85;55.42
34185;BME280;20454;48.100;11.776;2023-03-21T17:38:39;95204.94;;;13.77;55.35
34185;BME280;20454;48.100;11.776;2023-03-21T17:41:05;95223.00;;;13.80;55.96
34185;BME280;20454;48.100;11.776;2023-03-21T17:43:30;95209.00;;;13.68;56.08
34185;BME280;20454;48.100;11.776;2023-03-21T17:45:56;95221.34;;;13.67;56.50
34185;BME280;20454;48.100;11.776;2023-03-21T17:48:22;95208.53;;;13.54;57.85
34185;BME280;20454;48.100;11.776;2023-03-21T17:50:48;95217.63;;;13.51;57.38
34185;BME280;20454;48.100;11.776;2023-03-21T17:53:13;95197.34;;;13.42;57.52
34185;BME280;20454;48.100;11.776;2023-03-21T17:55:39;95218.06;;;13.41;57.56
34185;BME280;20454;48.100;11.776;2023-03-21T17:58:05;95204.66;;;13.34;57.33
34185;BME280;20454;48.100;11.776;2023-03-21T18:00:31;95210.59;;;13.33;57.79
34185;BME280;20454;48.100;11.776;2023-03-21T18:02:56;95194.38;;;13.14;58.46
34185;BME280;20454;48.100;11.776;2023-03-21T18:05:23;95209.19;;;13.15;58.97
34185;BME280;20454;48.100;11.776;2023-03-21T18:07:50;95210.09;;;13.07;58.86
34185;BME280;20454;48.100;11.776;2023-03-21T18:10:26;95219.00;;;13.00;59.36
34185;BME280;20454;48.100;11.776;2023-03-21T18:12:52;95221.53;;;12.93;59.45
34185;BME280;20454;48.100;11.776;2023-03-21T18:15:22;95221.34;;;12.78;60.05
34185;BME280;20454;48.100;11.776;2023-03-21T18:17:54;95229.13;;;12.72;61.85
34185;BME280;20454;48.100;11.776;2023-03-21T18:20:24;95228.72;;;12.62;62.89
34185;BME280;20454;48.100;11.776;2023-03-21T18:22:53;95226.22;;;12.48;62.81
34185;BME280;20454;48.100;11.776;2023-03-21T18:25:19;95222.53;;;12.36;64.27
34185;BME280;20454;48.100;11.776;2023-03-21T18:27:45;95242.56;;;12.38;66.04
34185;BME280;20454;48.100;11.776;2023-03-21T18:30:16;95218.25;;;12.18;66.34
34185;BME280;20454;48.100;11.776;2023-03-21T18:32:43;95225.22;;;12.03;67.20
34185;BME280;20454;48.100;11.776;2023-03-21T18:35:13;95231.13;;;12.02;67.52
34185;BME280;20454;48.100;11.776;2023-03-21T18:37:40;95232.19;;;11.89;69.03
34185;BME280;20454;48.100;11.776;2023-03-21T18:40:07;95250.88;;;11.97;69.29
34185;BME280;20454;48.100;11.776;2023-03-21T18:42:37;95232.59;;;11.79;69.25
34185;BME280;20454;48.100;11.776;2023-03-21T18:45:05;95249.47;;;11.82;69.93
34185;BME280;20454;48.100;11.776;2023-03-21T18:47:31;95237.75;;;11.68;69.92
34185;BME280;20454;48.100;11.776;2023-03-21T18:49:56;95252.28;;;11.74;70.70
34185;BME280;20454;48.100;11.776;2023-03-21T18:52:22;95255.63;;;11.67;70.58
34185;BME280;20454;48.100;11.776;2023-03-21T21:04:23;95281.75;;;10.40;82.84
34185;BME280;20454;48.100;11.776;2023-03-21T21:06:49;95269.13;;;10.34;83.11
34185;BME280;20454;48.100;11.776;2023-03-21T21:09:15;95283.84;;;10.35;83.28
34185;BME280;20454;48.100;11.776;2023-03-21T21:11:41;95283.34;;;10.33;83.72
34185;BME280;20454;48.100;11.776;2023-03-21T21:14:07;95274.84;;;10.21;84.15
34185;BME280;20454;48.100;11.776;2023-03-21T21:16:33;95285.16;;;10.20;83.86
34185;BME280;20454;48.100;11.776;2023-03-21T21:18:59;95284.97;;;10.17;84.75
34185;BME280;20454;48.100;11.776;2023-03-21T21:21:25;95292.00;;;10.14;84.64
34185;BME280;20454;48.100;11.776;2023-03-21T21:23:52;95279.22;;;10.05;84.58
34185;BME280;20454;48.100;11.776;2023-03-21T21:26:17;95286.91;;;10.08;85.21
34185;BME280;20454;48.100;11.776;2023-03-21T21:28:43;95283.28;;;9.99;85.45
34185;BME280;20454;48.100;11.776;2023-03-21T21:31:16;95285.56;;;9.97;85.25
34185;BME280;20454;48.100;11.776;2023-03-21T21:33:45;95292.41;;;9.91;86.27
34185;BME280;20454;48.100;11.776;2023-03-21T21:36:14;95293.56;;;9.90;86.44
34185;BME280;20454;48.100;11.776;2023-03-21T21:38:41;95282.59;;;9.85;86.29
34185;BME280;20454;48.100;11.776;2023-03-21T21:41:08;95281.75;;;9.84;86.59
34185;BME280;20454;48.100;11.776;2023-03-21T21:43:38;95269.97;;;9.79;86.35
34185;BME280;20454;48.100;11.776;2023-03-21T21:46:04;95268.50;;;9.73;86.85
34185;BME280;20454;48.100;11.776;2023-03-21T21:48:31;95302.03;;;9.85;86.87
34185;BME280;20454;48.100;11.776;2023-03-21T21:50:57;95298.09;;;9.86;87.48
34185;BME280;20454;48.100;11.776;2023-03-21T21:53:25;95286.50;;;9.84;87.13
34185;BME280;20454;48.100;11.776;2023-03-21T21:55:52;95284.53;;;9.84;86.99
34185;BME280;20454;48.100;11.776;2023-03-21T21:58:20;95282.56;;;9.76;87.29
34185;BME280;20454;48.100;11.776;2023-03-21T22:00:46;95285.69;;;9.75;87.52
34185;BME280;20454;48.100;11.776;2023-03-21T22:03:13;95284.84;;;9.74;87.48
34185;BME280;20454;48.100;11.776;2023-03-21T22:05:40;95263.06;;;9.59;87.30
34185;BME280;20454;48.100;11.776;2023-03-21T22:08:09;95276.31;;;9.62;87.56
34185;BME280;20454;48.100;11.776;2023-03-21T22:10:34;95292.00;;;9.67;88.07
34185;BME280;20454;48.100;11.776;2023-03-21T22:13:00;95288.56;;;9.61;87.76
34185;BME280;20454;48.100;11.776;2023-03-21T22:15:26;95280.34;;;9.56;87.97
34185;BME280;20454;48.100;11.776;2023-03-21T22:17:52;95288.84;;;9.52;88.69
34185;BME280;20454;48.100;11.776;2023-03-21T22:20:18;95277.56;;;9.48;88.59
34185;BME280;20454;48.100;11.776;2023-03-21T22:22:45;95289.31;;;9.45;88.56
34185;BME280;20454;48.100;11.776;2023-03-21T22:25:13;95295.50;;;9.42;88.57
34185;BME280;20454;48.100;11.776;2023-03-21T22:27:39;95288.47;;;9.36;88.50
34185;BME280;20454;48.100;11.776;2023-03-21T22:30:05;95288.78;;;9.35;88.64
34185;BME280;20454;48.100;11.776;2023-03-21T22:32:36;95297.78;;;9.40;88.55
34185;BME280;20454;48.100;11.776;2023-03-21T22:35:03;95289.41;;;9.32;88.70
34185;BME280;20454;48.100;11.776;2023-03-21T22:37:30;95292.63;;;9.25;88.25
34185;BME280;20454;48.100;11.776;2023-03-21T22:39:57;95307.22;;;9.31;88.29
34185;BME280;20454;48.100;11.776;2023-03-21T22:42:22;95293.47;;;9.26;88.20
34185;BME280;20454;48.100;11.776;2023-03-21T22:44:48;95299.16;;;9.21;88.76
34185;BME280;20454;48.100;11.776;2023-03-21T22:47:14;95293.34;;;9.09;88.19
34185;BME280;20454;48.100;11.776;2023-03-21T22:49:39;95300.06;;;9.08;88.60
34185;BME280;20454;48.100;11.776;2023-03-21T22:52:08;95302.47;;;9.01;88.95
34185;BME280;20454;48.100;11.776;2023-03-21T22:54:34;95297.06;;;8.96;88.93
34185;BME280;20454;48.100;11.776;2023-03-21T22:56:59;95296.69;;;8.89;89.35
34185;BME280;20454;48.100;11.776;2023-03-21T22:59:25;95288.31;;;8.80;89.47
34185;BME280;20454;48.100;11.776;2023-03-21T23:01:51;95294.16;;;8.79;89.81
34185;BME280;20454;48.100;11.776;2023-03-21T23:04:17;95306.41;;;8.78;89.96
34185;BME280;20454;48.100;11.776;2023-03-21T23:06:43;95298.84;;;8.70;89.89
34185;BME280;20454;48.100;11.776;2023-03-21T23:09:09;95293.53;;;8.60;90.24
34185;BME280;20454;48.100;11.776;2023-03-21T23:11:36;95293.97;;;8.53;90.18
34185;BME280;20454;48.100;11.776;2023-03-21T23:14:01;95304.03;;;8.49;90.50
34185;BME280;20454;48.100;11.776;2023-03-21T23:16:28;95293.22;;;8.39;90.42
34185;BME280;20454;48.100;11.776;2023-03-21T23:18:54;95294.47;;;8.33;91.17
34185;BME280;20454;48.100;11.776;2023-03-21T23:21:20;95298.97;;;8.29;90.71
34185;BME280;20454;48.100;11.776;2023-03-21T23:23:49;95290.81;;;8.24;90.99
34185;BME280;20454;48.100;11.776;2023-03-21T23:26:16;95297.16;;;8.25;91.78
34185;BME280;20454;48.100;11.776;2023-03-21T23:28:42;95283.63;;;8.10;91.24
34185;BME280;20454;48.100;11.776;2023-03-21T23:31:13;95306.69;;;8.19;91.71
34185;BME280;20454;48.100;11.776;2023-03-21T23:33:41;95299.63;;;8.13;91.75
34185;BME280;20454;48.100;11.776;2023-03-21T23:36:08;95298.41;;;8.05;92.10
34185;BME280;20454;48.100;11.776;2023-03-21T23:38:34;95287.78;;;7.99;92.24
34185;BME280;20454;48.100;11.776;2023-03-21T23:41:00;95310.31;;;8.06;92.59
34185;BME280;20454;48.100;11.776;2023-03-21T23:43:26;95303.25;;;8.00;92.22
34185;BME280;20454;48.100;11.776;2023-03-21T23:45:53;95305.00;;;7.96;92.71
34185;BME280;20454;48.100;11.776;2023-03-21T23:48:19;95312.50;;;7.95;92.92
34185;BME280;20454;48.100;11.776;2023-03-21T23:50:45;95306.56;;;7.88;92.77
34185;BME280;20454;48.100;11.776;2023-03-21T23:53:10;95309.94;;;7.85;92.63
34185;BME280;20454;48.100;11.776;2023-03-21T23:55:37;95305.34;;;7.81;92.87
34185;BME280;20454;48.100;11.776;2023-03-21T23:58:05;95303.00;;;7.74;93.12
